Thetys II — FGTO — position and weather

sailwx.info

Track history (hours):
 
Tides and Currents Weather Stations Pressure Air Temp Water Temp Dewpoint Dewpoint Depression Visibility Wind Speed Wind Dir Waves Ship Positions

Oceanographic research ship Thetys II (France)

Last reported at 2018-Apr-23 14:18 UTC. Time now 2018-Apr-23 19:06 UTC.
Position N 43°30' E 007°28'.

Length 25 m; beam 8 m.

Type: Ship. MMSI: 227212000.

Date/timePositionNaut miles runAvg speedWind from/ knotsBaromVisibWave heightAir tempDewpointWater temp
2018-Apr-23 14:18N 43°30' E 007°28'1 2.4
2018-Apr-23 13:57N 43°30' E 007°29'6 1.1
2018-Apr-23 08:17N 43°36' E 007°26'2 3.9
2018-Apr-23 07:52N 43°37' E 007°25'3 4.0
2018-Apr-23 07:12N 43°39' E 007°22'1 3.4
2018-Apr-23 06:59N 43°40' E 007°22'1 2.7
2018-Apr-23 06:27N 43°40' E 007°20'2 0.1
2018-Apr-22 16:11N 43°38' E 007°18'210.7
2018-Apr-22 16:01N 43°37' E 007°19'510.8
2018-Apr-22 15:30N 43°31' E 007°20'510.8
2018-Apr-22 15:00N 43°26' E 007°21'510.7
2018-Apr-22 14:30N 43°21' E 007°23'3 6.9
2018-Apr-22 14:00N 43°17' E 007°23'1 3.0
2018-Apr-22 13:30N 43°19' E 007°22'2 4.1
2018-Apr-22 13:00N 43°20' E 007°21'2 4.0
2018-Apr-22 12:30N 43°22' E 007°19'2 4.0
2018-Apr-22 12:00N 43°24' E 007°18'2 4.0
2018-Apr-22 11:30N 43°25' E 007°17'2 4.1
2018-Apr-22 11:00N 43°27' E 007°15'2 4.0
2018-Apr-22 10:30N 43°29' E 007°14'2 3.9
2018-Apr-22 10:00N 43°31' E 007°12'2 4.0
2018-Apr-22 09:30N 43°32' E 007°11'2 3.2
2018-Apr-22 08:58N 43°34' E 007°10'5 8.9
2018-Apr-22 08:25N 43°38' E 007°14'7 0.2
2018-Apr-20 15:58N 43°37' E 007°24'2 0.2
2018-Apr-20 06:28N 43°36' E 007°27'510.1
2018-Apr-20 05:57N 43°39' E 007°21'1 0.1
2018-Apr-19 16:56N 43°40' E 007°19'31 5.4
2018-Apr-19 11:17N 43°22' E 007°54'22 5.6
2018-Apr-19 07:16N 43°35' E 007°29'3 9.4
2018-Apr-19 06:57N 43°37' E 007°25'510.1
2018-Apr-19 06:29N 43°40' E 007°20'0 0.0
2018-Apr-18 17:07N 43°39' E 007°21'6 0.6
2018-Apr-18 07:38N 43°36' E 007°27'1 9.7
2018-Apr-18 07:30N 43°37' E 007°26'510.2
2018-Apr-18 06:58N 43°40' E 007°20'0 0.0
2018-Apr-17 17:39N 43°40' E 007°19'210.5
2018-Apr-17 17:30N 43°39' E 007°21'610.7
2018-Apr-17 16:56N 43°36' E 007°28'511.1
2018-Apr-17 16:30N 43°34' E 007°34'1111.4
2018-Apr-17 15:34N 43°28' E 007°46'110.6
2018-Apr-17 15:30N 43°28' E 007°47'4 8.8
2018-Apr-17 15:01N 43°26' E 007°52'0 0.5
2018-Apr-17 14:27N 43°25' E 007°52'0 0.3
2018-Apr-17 14:00N 43°25' E 007°52'0 0.5
2018-Apr-17 13:30N 43°25' E 007°52'3 6.3
2018-Apr-17 13:00N 43°24' E 007°56'1 1.4
2018-Apr-17 12:12N 43°23' E 007°57'0 0.3
2018-Apr-17 12:00N 43°23' E 007°57'0 0.9
2018-Apr-17 11:29N 43°23' E 007°57'5 1.7
2018-Apr-17 08:41N 43°26' E 007°51'610.0
2018-Apr-17 08:08N 43°29' E 007°45'2 9.7
2018-Apr-17 07:57N 43°30' E 007°43'610.1
2018-Apr-17 07:22N 43°33' E 007°36'410.4
2018-Apr-17 07:00N 43°35' E 007°31'510.2
2018-Apr-17 06:29N 43°37' E 007°25'510.6
2018-Apr-17 06:00N 43°40' E 007°19'5 2.2
2018-Apr-17 03:52N 43°37' E 007°14'5 7.5
2018-Apr-17 03:09N 43°32' E 007°10'2 7.3
2018-Apr-17 02:53N 43°31' E 007°08'3 7.4
2018-Apr-17 02:31N 43°29' E 007°06'4 7.3
2018-Apr-17 02:01N 43°26' E 007°03'4 7.6
2018-Apr-17 01:30N 43°23' E 006°59'48 7.1
2018-Apr-16 18:42N 43°05' E 005°58'2 8.3
2018-Apr-16 18:29N 43°05' E 005°55'2 4.0
2018-Apr-16 18:00N 43°06' E 005°53'0 0.0
2018-Apr-16 17:30N 43°06' E 005°53'0 0.0
2018-Apr-16 17:00N 43°06' E 005°53'0 0.0
2018-Apr-16 16:30N 43°06' E 005°53'0 0.0
2018-Apr-16 16:00N 43°06' E 005°53'0 0.0
2018-Apr-16 15:30N 43°06' E 005°53'0 0.0
2018-Apr-16 15:00N 43°06' E 005°53'0 0.0
2018-Apr-16 14:30N 43°06' E 005°53'0 0.0
2018-Apr-16 14:00N 43°06' E 005°53'0 0.0
2018-Apr-16 13:30N 43°06' E 005°53'0 0.0
2018-Apr-16 13:00N 43°06' E 005°53'0 0.0
2018-Apr-16 12:30N 43°06' E 005°53'0 0.0
2018-Apr-16 12:00N 43°06' E 005°53'0 0.0
2018-Apr-16 11:30N 43°06' E 005°53'0 0.0
2018-Apr-16 11:00N 43°06' E 005°53'0 0.0
2018-Apr-16 10:30N 43°06' E 005°53'0 0.0
2018-Apr-16 10:00N 43°06' E 005°53'0 0.0
2018-Apr-16 09:30N 43°06' E 005°53'0 0.0
2018-Apr-16 09:00N 43°06' E 005°53'0 0.0
2018-Apr-16 08:30N 43°06' E 005°53'0 0.0
2018-Apr-16 08:00N 43°06' E 005°53'0 0.0
2018-Apr-16 07:30N 43°06' E 005°53'0 0.0
2018-Apr-16 07:00N 43°06' E 005°53'0 0.0
2018-Apr-16 06:30N 43°06' E 005°53'0 0.0
2018-Apr-16 06:00N 43°06' E 005°53'0 0.0
2018-Apr-16 05:30N 43°06' E 005°53'0 0.0
2018-Apr-16 05:00N 43°06' E 005°53'0 0.0
2018-Apr-16 04:30N 43°06' E 005°53'0 0.0
2018-Apr-16 04:00N 43°06' E 005°53'0 0.0
2018-Apr-16 03:30N 43°06' E 005°53'0 0.0
2018-Apr-16 03:00N 43°06' E 005°53'0 0.0
2018-Apr-16 02:30N 43°06' E 005°53'0 0.0
2018-Apr-16 02:00N 43°06' E 005°53'0 0.0
2018-Apr-16 01:30N 43°06' E 005°53'0 0.0
2018-Apr-16 01:00N 43°06' E 005°53'0 0.0
2018-Apr-16 00:30N 43°06' E 005°53'0 0.0
2018-Apr-16 00:00N 43°06' E 005°53'0 0.0
2018-Apr-15 23:30N 43°06' E 005°53'0 0.0
2018-Apr-15 23:00N 43°06' E 005°53'0 0.0
2018-Apr-15 22:30N 43°06' E 005°53'0 0.0
2018-Apr-15 22:00N 43°06' E 005°53'0 0.0
2018-Apr-15 21:30N 43°06' E 005°53'0 0.0
2018-Apr-15 21:00N 43°06' E 005°53'0 0.0
2018-Apr-15 20:30N 43°06' E 005°53'0 0.0
2018-Apr-15 20:00N 43°06' E 005°53'0 0.0
2018-Apr-15 19:30N 43°06' E 005°53'0 0.0
2018-Apr-15 19:00N 43°06' E 005°53'0 0.0
2018-Apr-15 18:30N 43°06' E 005°53'0 0.0
2018-Apr-15 18:00N 43°06' E 005°53'0 0.0
2018-Apr-15 17:30N 43°06' E 005°53'0 0.0
2018-Apr-15 16:57N 43°06' E 005°53'0 0.0
2018-Apr-15 16:30N 43°06' E 005°53'0 0.0
2018-Apr-15 16:00N 43°06' E 005°53'0 0.0
2018-Apr-15 15:30N 43°06' E 005°53'0 0.0
2018-Apr-15 15:00N 43°06' E 005°53'0 0.0
2018-Apr-15 14:30N 43°06' E 005°53'0 0.0
2018-Apr-15 14:00N 43°06' E 005°53'0 0.0
2018-Apr-15 13:30N 43°06' E 005°53'0 0.0
2018-Apr-15 13:00N 43°06' E 005°53'0 0.0
2018-Apr-15 12:30N 43°06' E 005°53'0 0.0
2018-Apr-15 12:00N 43°06' E 005°53'0 0.0
2018-Apr-15 11:30N 43°06' E 005°53'0 0.0
2018-Apr-15 11:00N 43°06' E 005°53'0 0.0
2018-Apr-15 10:30N 43°06' E 005°53'0 0.0
2018-Apr-15 10:00N 43°06' E 005°53'0 0.0
2018-Apr-15 09:30N 43°06' E 005°53'0 0.0
2018-Apr-15 09:00N 43°06' E 005°53'0 0.0
2018-Apr-15 08:30N 43°06' E 005°53'0 0.0
2018-Apr-15 08:00N 43°06' E 005°53'0 0.0
2018-Apr-15 07:30N 43°06' E 005°53'0 0.0
2018-Apr-15 07:00N 43°06' E 005°53'0 0.0
2018-Apr-15 06:30N 43°06' E 005°53'0 0.0
2018-Apr-15 06:00N 43°06' E 005°53'0 0.0
2018-Apr-15 05:30N 43°06' E 005°53'0 0.0
2018-Apr-15 05:00N 43°06' E 005°53'0 0.0
2018-Apr-15 04:30N 43°06' E 005°53'0 0.0
2018-Apr-15 04:00N 43°06' E 005°53'0 0.0
2018-Apr-15 03:30N 43°06' E 005°53'0 0.0
2018-Apr-15 03:00N 43°06' E 005°53'0 0.0
2018-Apr-15 02:30N 43°06' E 005°53'0 0.0
2018-Apr-15 02:00N 43°06' E 005°53'0 0.0
2018-Apr-15 01:30N 43°06' E 005°53'0 0.0
2018-Apr-15 01:00N 43°06' E 005°53'0 0.0
2018-Apr-15 00:30N 43°06' E 005°53'0 0.0
2018-Apr-15 00:00N 43°06' E 005°53'0 0.0
2018-Apr-14 23:30N 43°06' E 005°53'0 0.0
2018-Apr-14 23:00N 43°06' E 005°53'0 0.0
2018-Apr-14 22:30N 43°06' E 005°53'0 0.0
2018-Apr-14 22:00N 43°06' E 005°53'0 0.0
2018-Apr-14 21:30N 43°06' E 005°53'0 0.0
2018-Apr-14 21:00N 43°06' E 005°53'0 0.0
2018-Apr-14 20:30N 43°06' E 005°53'0 0.0
2018-Apr-14 20:00N 43°06' E 005°53'0 0.0
2018-Apr-14 19:30N 43°06' E 005°53'0 0.0
2018-Apr-14 19:00N 43°06' E 005°53'0 0.0
2018-Apr-14 18:30N 43°06' E 005°53'0 0.0
2018-Apr-14 18:00N 43°06' E 005°53'0 0.0
2018-Apr-14 17:30N 43°06' E 005°53'0 0.0
2018-Apr-14 17:00N 43°06' E 005°53'0 0.0
2018-Apr-14 16:30N 43°06' E 005°53'0 0.0
2018-Apr-14 16:00N 43°06' E 005°53'0 0.0
2018-Apr-14 15:30N 43°06' E 005°53'0 0.0
2018-Apr-14 15:00N 43°06' E 005°53'0 0.0
2018-Apr-14 14:30N 43°06' E 005°53'0 0.0
2018-Apr-14 14:00N 43°06' E 005°53'0 0.0
2018-Apr-14 13:30N 43°06' E 005°53'0 0.0
2018-Apr-14 13:00N 43°06' E 005°53'0 0.0
2018-Apr-14 12:30N 43°06' E 005°53'0 0.0
2018-Apr-14 12:00N 43°06' E 005°53'0 0.0
2018-Apr-14 11:30N 43°06' E 005°53'0 0.0
2018-Apr-14 11:00N 43°06' E 005°53'0 0.0
2018-Apr-14 10:27N 43°06' E 005°53'0 0.0
2018-Apr-14 10:00N 43°06' E 005°53'0 0.0
2018-Apr-14 09:30N 43°06' E 005°53'0 0.0
2018-Apr-14 09:00N 43°06' E 005°53'0 0.0
2018-Apr-14 08:30N 43°06' E 005°53'0 0.0
2018-Apr-14 08:00N 43°06' E 005°53'0 0.0
2018-Apr-14 07:30N 43°06' E 005°53'0 0.0
2018-Apr-14 07:00N 43°06' E 005°53'0 0.0
2018-Apr-14 06:30N 43°06' E 005°53'0 0.0
2018-Apr-14 06:00N 43°06' E 005°53'0 0.0
2018-Apr-14 05:30N 43°06' E 005°53'0 0.0
2018-Apr-14 05:00N 43°06' E 005°53'0 0.0
2018-Apr-14 04:30N 43°06' E 005°53'0 0.0
2018-Apr-14 04:00N 43°06' E 005°53'0 0.0
2018-Apr-14 03:30N 43°06' E 005°53'0 0.0
2018-Apr-14 03:00N 43°06' E 005°53'0 0.0
2018-Apr-14 02:30N 43°06' E 005°53'0 0.0
2018-Apr-14 02:00N 43°06' E 005°53'0 0.0
2018-Apr-14 01:30N 43°06' E 005°53'0 0.0
2018-Apr-14 01:00N 43°06' E 005°53'0 0.0
2018-Apr-14 00:30N 43°06' E 005°53'0 0.0
2018-Apr-14 00:00N 43°06' E 005°53'0 0.0
2018-Apr-13 23:30N 43°06' E 005°53'0 0.0
2018-Apr-13 23:00N 43°06' E 005°53'0 0.0
2018-Apr-13 22:30N 43°06' E 005°53'0 0.0
2018-Apr-13 22:00N 43°06' E 005°53'0 0.0
2018-Apr-13 21:30N 43°06' E 005°53'0 0.0
2018-Apr-13 21:00N 43°06' E 005°53'0 0.0
2018-Apr-13 20:30N 43°06' E 005°53'0 0.0
2018-Apr-13 20:00N 43°06' E 005°53'0 0.0
2018-Apr-13 19:30N 43°06' E 005°53'1 1.9
2018-Apr-13 19:00N 43°06' E 005°54'  
Track history (hours):
 
Tides and Currents Weather Stations Pressure Air Temp Water Temp Dewpoint Dewpoint Depression Visibility Wind Speed Wind Dir Waves Ship Positions

Oceanographic research ship Thetys II (France)

Last reported at 2018-Apr-23 14:18 UTC. Time now 2018-Apr-23 19:06 UTC.
Position N 43°30' E 007°28'.

Length 25 m; beam 8 m.

Type: Ship. MMSI: 227212000.

Date/timePositionNaut miles runAvg speedWind from/ knotsBaromVisibWave heightAir tempDewpointWater temp
2018-Apr-23 14:18N 43°30' E 007°28'1 2.4
2018-Apr-23 13:57N 43°30' E 007°29'6 1.1
2018-Apr-23 08:17N 43°36' E 007°26'2 3.9
2018-Apr-23 07:52N 43°37' E 007°25'3 4.0
2018-Apr-23 07:12N 43°39' E 007°22'1 3.4
2018-Apr-23 06:59N 43°40' E 007°22'1 2.7
2018-Apr-23 06:27N 43°40' E 007°20'2 0.1
2018-Apr-22 16:11N 43°38' E 007°18'210.7
2018-Apr-22 16:01N 43°37' E 007°19'510.8
2018-Apr-22 15:30N 43°31' E 007°20'510.8
2018-Apr-22 15:00N 43°26' E 007°21'510.7
2018-Apr-22 14:30N 43°21' E 007°23'3 6.9
2018-Apr-22 14:00N 43°17' E 007°23'1 3.0
2018-Apr-22 13:30N 43°19' E 007°22'2 4.1
2018-Apr-22 13:00N 43°20' E 007°21'2 4.0
2018-Apr-22 12:30N 43°22' E 007°19'2 4.0
2018-Apr-22 12:00N 43°24' E 007°18'2 4.0
2018-Apr-22 11:30N 43°25' E 007°17'2 4.1
2018-Apr-22 11:00N 43°27' E 007°15'2 4.0
2018-Apr-22 10:30N 43°29' E 007°14'2 3.9
2018-Apr-22 10:00N 43°31' E 007°12'2 4.0
2018-Apr-22 09:30N 43°32' E 007°11'2 3.2
2018-Apr-22 08:58N 43°34' E 007°10'5 8.9
2018-Apr-22 08:25N 43°38' E 007°14'7 0.2
2018-Apr-20 15:58N 43°37' E 007°24'2 0.2
2018-Apr-20 06:28N 43°36' E 007°27'510.1
2018-Apr-20 05:57N 43°39' E 007°21'1 0.1
2018-Apr-19 16:56N 43°40' E 007°19'31 5.4
2018-Apr-19 11:17N 43°22' E 007°54'22 5.6
2018-Apr-19 07:16N 43°35' E 007°29'3 9.4
2018-Apr-19 06:57N 43°37' E 007°25'510.1
2018-Apr-19 06:29N 43°40' E 007°20'0 0.0
2018-Apr-18 17:07N 43°39' E 007°21'6 0.6
2018-Apr-18 07:38N 43°36' E 007°27'1 9.7
2018-Apr-18 07:30N 43°37' E 007°26'510.2
2018-Apr-18 06:58N 43°40' E 007°20'0 0.0
2018-Apr-17 17:39N 43°40' E 007°19'210.5
2018-Apr-17 17:30N 43°39' E 007°21'610.7
2018-Apr-17 16:56N 43°36' E 007°28'511.1
2018-Apr-17 16:30N 43°34' E 007°34'1111.4
2018-Apr-17 15:34N 43°28' E 007°46'110.6
2018-Apr-17 15:30N 43°28' E 007°47'4 8.8
2018-Apr-17 15:01N 43°26' E 007°52'0 0.5
2018-Apr-17 14:27N 43°25' E 007°52'0 0.3
2018-Apr-17 14:00N 43°25' E 007°52'0 0.5
2018-Apr-17 13:30N 43°25' E 007°52'3 6.3
2018-Apr-17 13:00N 43°24' E 007°56'1 1.4
2018-Apr-17 12:12N 43°23' E 007°57'0 0.3
2018-Apr-17 12:00N 43°23' E 007°57'0 0.9
2018-Apr-17 11:29N 43°23' E 007°57'5 1.7
2018-Apr-17 08:41N 43°26' E 007°51'610.0
2018-Apr-17 08:08N 43°29' E 007°45'2 9.7
2018-Apr-17 07:57N 43°30' E 007°43'610.1
2018-Apr-17 07:22N 43°33' E 007°36'410.4
2018-Apr-17 07:00N 43°35' E 007°31'510.2
2018-Apr-17 06:29N 43°37' E 007°25'510.6
2018-Apr-17 06:00N 43°40' E 007°19'5 2.2
2018-Apr-17 03:52N 43°37' E 007°14'5 7.5
2018-Apr-17 03:09N 43°32' E 007°10'2 7.3
2018-Apr-17 02:53N 43°31' E 007°08'3 7.4
2018-Apr-17 02:31N 43°29' E 007°06'4 7.3
2018-Apr-17 02:01N 43°26' E 007°03'4 7.6
2018-Apr-17 01:30N 43°23' E 006°59'48 7.1
2018-Apr-16 18:42N 43°05' E 005°58'2 8.3
2018-Apr-16 18:29N 43°05' E 005°55'2 4.0
2018-Apr-16 18:00N 43°06' E 005°53'0 0.0
2018-Apr-16 17:30N 43°06' E 005°53'0 0.0
2018-Apr-16 17:00N 43°06' E 005°53'0 0.0
2018-Apr-16 16:30N 43°06' E 005°53'0 0.0
2018-Apr-16 16:00N 43°06' E 005°53'0 0.0
2018-Apr-16 15:30N 43°06' E 005°53'0 0.0
2018-Apr-16 15:00N 43°06' E 005°53'0 0.0
2018-Apr-16 14:30N 43°06' E 005°53'0 0.0
2018-Apr-16 14:00N 43°06' E 005°53'0 0.0
2018-Apr-16 13:30N 43°06' E 005°53'0 0.0
2018-Apr-16 13:00N 43°06' E 005°53'0 0.0
2018-Apr-16 12:30N 43°06' E 005°53'0 0.0
2018-Apr-16 12:00N 43°06' E 005°53'0 0.0
2018-Apr-16 11:30N 43°06' E 005°53'0 0.0
2018-Apr-16 11:00N 43°06' E 005°53'0 0.0
2018-Apr-16 10:30N 43°06' E 005°53'0 0.0
2018-Apr-16 10:00N 43°06' E 005°53'0 0.0
2018-Apr-16 09:30N 43°06' E 005°53'0 0.0
2018-Apr-16 09:00N 43°06' E 005°53'0 0.0
2018-Apr-16 08:30N 43°06' E 005°53'0 0.0
2018-Apr-16 08:00N 43°06' E 005°53'0 0.0
2018-Apr-16 07:30N 43°06' E 005°53'0 0.0
2018-Apr-16 07:00N 43°06' E 005°53'0 0.0
2018-Apr-16 06:30N 43°06' E 005°53'0 0.0
2018-Apr-16 06:00N 43°06' E 005°53'0 0.0
2018-Apr-16 05:30N 43°06' E 005°53'0 0.0
2018-Apr-16 05:00N 43°06' E 005°53'0 0.0
2018-Apr-16 04:30N 43°06' E 005°53'0 0.0
2018-Apr-16 04:00N 43°06' E 005°53'0 0.0
2018-Apr-16 03:30N 43°06' E 005°53'0 0.0
2018-Apr-16 03:00N 43°06' E 005°53'0 0.0
2018-Apr-16 02:30N 43°06' E 005°53'0 0.0
2018-Apr-16 02:00N 43°06' E 005°53'0 0.0
2018-Apr-16 01:30N 43°06' E 005°53'0 0.0
2018-Apr-16 01:00N 43°06' E 005°53'0 0.0
2018-Apr-16 00:30N 43°06' E 005°53'0 0.0
2018-Apr-16 00:00N 43°06' E 005°53'0 0.0
2018-Apr-15 23:30N 43°06' E 005°53'0 0.0
2018-Apr-15 23:00N 43°06' E 005°53'0 0.0
2018-Apr-15 22:30N 43°06' E 005°53'0 0.0
2018-Apr-15 22:00N 43°06' E 005°53'0 0.0
2018-Apr-15 21:30N 43°06' E 005°53'0 0.0
2018-Apr-15 21:00N 43°06' E 005°53'0 0.0
2018-Apr-15 20:30N 43°06' E 005°53'0 0.0
2018-Apr-15 20:00N 43°06' E 005°53'0 0.0
2018-Apr-15 19:30N 43°06' E 005°53'0 0.0
2018-Apr-15 19:00N 43°06' E 005°53'0 0.0
2018-Apr-15 18:30N 43°06' E 005°53'0 0.0
2018-Apr-15 18:00N 43°06' E 005°53'0 0.0
2018-Apr-15 17:30N 43°06' E 005°53'0 0.0
2018-Apr-15 16:57N 43°06' E 005°53'0 0.0
2018-Apr-15 16:30N 43°06' E 005°53'0 0.0
2018-Apr-15 16:00N 43°06' E 005°53'0 0.0
2018-Apr-15 15:30N 43°06' E 005°53'0 0.0
2018-Apr-15 15:00N 43°06' E 005°53'0 0.0
2018-Apr-15 14:30N 43°06' E 005°53'0 0.0
2018-Apr-15 14:00N 43°06' E 005°53'0 0.0
2018-Apr-15 13:30N 43°06' E 005°53'0 0.0
2018-Apr-15 13:00N 43°06' E 005°53'0 0.0
2018-Apr-15 12:30N 43°06' E 005°53'0 0.0
2018-Apr-15 12:00N 43°06' E 005°53'0 0.0
2018-Apr-15 11:30N 43°06' E 005°53'0 0.0
2018-Apr-15 11:00N 43°06' E 005°53'0 0.0
2018-Apr-15 10:30N 43°06' E 005°53'0 0.0
2018-Apr-15 10:00N 43°06' E 005°53'0 0.0
2018-Apr-15 09:30N 43°06' E 005°53'0 0.0
2018-Apr-15 09:00N 43°06' E 005°53'0 0.0
2018-Apr-15 08:30N 43°06' E 005°53'0 0.0
2018-Apr-15 08:00N 43°06' E 005°53'0 0.0
2018-Apr-15 07:30N 43°06' E 005°53'0 0.0
2018-Apr-15 07:00N 43°06' E 005°53'0 0.0
2018-Apr-15 06:30N 43°06' E 005°53'0 0.0
2018-Apr-15 06:00N 43°06' E 005°53'0 0.0
2018-Apr-15 05:30N 43°06' E 005°53'0 0.0
2018-Apr-15 05:00N 43°06' E 005°53'0 0.0
2018-Apr-15 04:30N 43°06' E 005°53'0 0.0
2018-Apr-15 04:00N 43°06' E 005°53'0 0.0
2018-Apr-15 03:30N 43°06' E 005°53'0 0.0
2018-Apr-15 03:00N 43°06' E 005°53'0 0.0
2018-Apr-15 02:30N 43°06' E 005°53'0 0.0
2018-Apr-15 02:00N 43°06' E 005°53'0 0.0
2018-Apr-15 01:30N 43°06' E 005°53'0 0.0
2018-Apr-15 01:00N 43°06' E 005°53'0 0.0
2018-Apr-15 00:30N 43°06' E 005°53'0 0.0
2018-Apr-15 00:00N 43°06' E 005°53'0 0.0
2018-Apr-14 23:30N 43°06' E 005°53'0 0.0
2018-Apr-14 23:00N 43°06' E 005°53'0 0.0
2018-Apr-14 22:30N 43°06' E 005°53'0 0.0
2018-Apr-14 22:00N 43°06' E 005°53'0 0.0
2018-Apr-14 21:30N 43°06' E 005°53'0 0.0
2018-Apr-14 21:00N 43°06' E 005°53'0 0.0
2018-Apr-14 20:30N 43°06' E 005°53'0 0.0
2018-Apr-14 20:00N 43°06' E 005°53'0 0.0
2018-Apr-14 19:30N 43°06' E 005°53'0 0.0
2018-Apr-14 19:00N 43°06' E 005°53'0 0.0
2018-Apr-14 18:30N 43°06' E 005°53'0 0.0
2018-Apr-14 18:00N 43°06' E 005°53'0 0.0
2018-Apr-14 17:30N 43°06' E 005°53'0 0.0
2018-Apr-14 17:00N 43°06' E 005°53'0 0.0
2018-Apr-14 16:30N 43°06' E 005°53'0 0.0
2018-Apr-14 16:00N 43°06' E 005°53'0 0.0
2018-Apr-14 15:30N 43°06' E 005°53'0 0.0
2018-Apr-14 15:00N 43°06' E 005°53'0 0.0
2018-Apr-14 14:30N 43°06' E 005°53'0 0.0
2018-Apr-14 14:00N 43°06' E 005°53'0 0.0
2018-Apr-14 13:30N 43°06' E 005°53'0 0.0
2018-Apr-14 13:00N 43°06' E 005°53'0 0.0
2018-Apr-14 12:30N 43°06' E 005°53'0 0.0
2018-Apr-14 12:00N 43°06' E 005°53'0 0.0
2018-Apr-14 11:30N 43°06' E 005°53'0 0.0
2018-Apr-14 11:00N 43°06' E 005°53'0 0.0
2018-Apr-14 10:27N 43°06' E 005°53'0 0.0
2018-Apr-14 10:00N 43°06' E 005°53'0 0.0
2018-Apr-14 09:30N 43°06' E 005°53'0 0.0
2018-Apr-14 09:00N 43°06' E 005°53'0 0.0
2018-Apr-14 08:30N 43°06' E 005°53'0 0.0
2018-Apr-14 08:00N 43°06' E 005°53'0 0.0
2018-Apr-14 07:30N 43°06' E 005°53'0 0.0
2018-Apr-14 07:00N 43°06' E 005°53'0 0.0
2018-Apr-14 06:30N 43°06' E 005°53'0 0.0
2018-Apr-14 06:00N 43°06' E 005°53'0 0.0
2018-Apr-14 05:30N 43°06' E 005°53'0 0.0
2018-Apr-14 05:00N 43°06' E 005°53'0 0.0
2018-Apr-14 04:30N 43°06' E 005°53'0 0.0
2018-Apr-14 04:00N 43°06' E 005°53'0 0.0
2018-Apr-14 03:30N 43°06' E 005°53'0 0.0
2018-Apr-14 03:00N 43°06' E 005°53'0 0.0
2018-Apr-14 02:30N 43°06' E 005°53'0 0.0
2018-Apr-14 02:00N 43°06' E 005°53'0 0.0
2018-Apr-14 01:30N 43°06' E 005°53'0 0.0
2018-Apr-14 01:00N 43°06' E 005°53'0 0.0
2018-Apr-14 00:30N 43°06' E 005°53'0 0.0
2018-Apr-14 00:00N 43°06' E 005°53'0 0.0
2018-Apr-13 23:30N 43°06' E 005°53'0 0.0
2018-Apr-13 23:00N 43°06' E 005°53'0 0.0
2018-Apr-13 22:30N 43°06' E 005°53'0 0.0
2018-Apr-13 22:00N 43°06' E 005°53'0 0.0
2018-Apr-13 21:30N 43°06' E 005°53'0 0.0
2018-Apr-13 21:00N 43°06' E 005°53'0 0.0
2018-Apr-13 20:30N 43°06' E 005°53'0 0.0
2018-Apr-13 20:00N 43°06' E 005°53'0 0.0
2018-Apr-13 19:30N 43°06' E 005°53'1 1.9
2018-Apr-13 19:00N 43°06' E 005°54'  

Dump ship's entire track history